< < Back
Terminal Aerodrome Forecast


Current Version              Previous Versions:   1  2  3  4  5  6  7  8  9  

Terminal Aerodrome Forecast

286
FTUS42 KILM 312323
TAFILM
TAF
KILM 312323Z 0100/0124 VRB03KT P6SM VCSH FEW020 BKN120
     FM010800 02004KT P6SM VCSH SCT008 SCT120
     FM011300 34005KT P6SM VCSH SCT035 SCT120
     FM011800 21011KT P6SM VCTS SCT050CB SCT200=

Latest METAR

727
SAUS70 KWBC 312300 RRM
MTRILM
METAR KILM 312253Z 15003KT 10SM BKN120 26/22 A2993 RMK AO2 SLP134
T02560217


USA.gov is the U.S. government's official web portal to all federal, state and local government web resources and services.